Shirley, South Carolina
Current Conditions -  °F | °C
As of 9:55 PM on Sunday 23 Nov 2014 (Local Time) from KJYL Reporting Station
Broken Clouds Broken Clouds  
Wind Chill: 66°   Ceiling: 11000
Heat Index: 66°   Visibility: 10mi
Dew Point: 65°   Wind: 8mph
Humidity: 97%   Direction: 200°SSW
Pressure: 29.84"   Gusts: NA
Location:  32.6001°N, 81.2393°W
Report Text: KJYL 240255Z AUTO 20007KT 10SM BKN110 19/19 A2984 RMK AO2 LTG DSNT E THRU SW T01900185
Loading
Personal Weather Stations






























Interactive Weather Map New forecast layout! Learn more

10-Day Weather Forecast

Advertisements
Track Severe Weather on mobile